createdAt,value
2022-11-12T00:02:12.398Z,4.17
2022-11-12T00:04:59.190Z,4.07
2022-11-12T00:07:45.867Z,3.97
2022-11-12T00:10:33.295Z,3.87
2022-11-12T00:13:20.461Z,3.87
2022-11-12T00:16:08.087Z,3.84
2022-11-12T00:18:56.092Z,3.88
2022-11-12T00:21:42.834Z,3.72
2022-11-12T00:24:29.448Z,3.80
2022-11-12T00:27:16.381Z,3.94
2022-11-12T00:30:03.613Z,3.85
2022-11-12T00:32:50.225Z,3.81
2022-11-12T00:35:38.236Z,3.92
2022-11-12T00:38:25.511Z,3.91
2022-11-12T00:41:12.985Z,3.79
2022-11-12T00:43:59.801Z,3.74
2022-11-12T00:46:46.708Z,3.67
2022-11-12T00:49:33.391Z,3.68
2022-11-12T00:52:21.357Z,3.55
2022-11-12T00:55:09.010Z,3.50
2022-11-12T00:57:55.669Z,3.48
2022-11-12T01:00:42.270Z,3.28
2022-11-12T01:03:29.600Z,3.30
2022-11-12T01:06:19.954Z,3.02
2022-11-12T01:09:08.351Z,3.18
2022-11-12T01:11:55.608Z,3.20
2022-11-12T01:14:42.539Z,3.19
2022-11-12T01:17:29.964Z,3.27
2022-11-12T01:20:17.134Z,1.77
2022-11-12T01:23:03.901Z,3.31
2022-11-12T01:25:51.990Z,3.35
2022-11-12T01:28:39.392Z,3.25
2022-11-12T01:31:28.923Z,3.04
2022-11-12T01:34:15.464Z,3.76
2022-11-12T01:37:02.083Z,3.03
2022-11-12T01:39:48.755Z,3.02
2022-11-12T01:42:36.632Z,3.04
2022-11-12T01:45:23.493Z,3.04
2022-11-12T01:48:26.213Z,2.98
2022-11-12T01:51:13.760Z,2.95
2022-11-12T01:54:04.853Z,2.92
2022-11-12T01:56:52.448Z,0.98
2022-11-12T01:59:45.248Z,2.73
2022-11-12T02:02:32.343Z,2.61
2022-11-12T02:05:20.203Z,2.72
2022-11-12T02:08:11.013Z,2.56
2022-11-12T02:10:57.747Z,2.51
2022-11-12T02:14:01.165Z,2.58
2022-11-12T02:16:50.506Z,2.58
2022-11-12T02:19:39.070Z,2.54
2022-11-12T02:22:28.050Z,2.54
2022-11-12T02:25:18.878Z,2.58
2022-11-12T02:28:08.534Z,1.86
2022-11-12T02:30:56.668Z,2.67
2022-11-12T02:33:43.435Z,2.74
2022-11-12T02:36:30.647Z,2.71
2022-11-12T02:39:19.374Z,2.73
2022-11-12T02:42:06.672Z,2.71
2022-11-12T02:44:53.925Z,2.65
2022-11-12T02:47:40.744Z,2.66
2022-11-12T02:50:27.467Z,2.72
2022-11-12T02:53:15.374Z,2.78
2022-11-12T02:56:04.372Z,2.81
2022-11-12T02:58:51.452Z,2.81
2022-11-12T03:01:38.371Z,2.95
2022-11-12T03:04:33.862Z,2.89
2022-11-12T03:07:21.302Z,2.72
2022-11-12T03:10:09.081Z,2.99
2022-11-12T03:12:59.254Z,2.97
2022-11-12T03:15:46.280Z,2.79
2022-11-12T03:18:33.152Z,2.77
2022-11-12T03:21:19.690Z,2.74
2022-11-12T03:24:06.911Z,2.72
2022-11-12T03:26:53.810Z,2.76
2022-11-12T03:29:41.831Z,2.73
2022-11-12T03:32:28.577Z,2.83
2022-11-12T03:35:15.806Z,2.74
2022-11-12T03:38:03.449Z,2.75
2022-11-12T03:40:50.572Z,2.69
2022-11-12T03:43:37.320Z,2.75
2022-11-12T03:46:25.820Z,2.73
2022-11-12T03:49:12.745Z,2.65
2022-11-12T03:51:59.693Z,2.68
2022-11-12T03:54:51.483Z,2.74
2022-11-12T03:57:38.305Z,2.67
2022-11-12T04:00:27.377Z,2.74
2022-11-12T04:03:15.480Z,2.69
2022-11-12T04:06:19.791Z,2.35
2022-11-12T04:09:06.892Z,2.84
2022-11-12T04:11:53.548Z,2.79
2022-11-12T04:14:40.144Z,2.85
2022-11-12T04:17:44.255Z,2.75
2022-11-12T04:20:49.922Z,2.73
2022-11-12T04:23:36.940Z,2.72
2022-11-12T04:26:25.348Z,2.87
2022-11-12T04:29:30.403Z,2.85
2022-11-12T04:32:20.003Z,2.76
2022-11-12T04:35:09.464Z,2.73
2022-11-12T04:37:58.891Z,2.75
2022-11-12T04:41:03.027Z,2.69
2022-11-12T04:44:07.353Z,2.77
2022-11-12T04:46:54.429Z,2.79
2022-11-12T04:49:41.194Z,2.87
2022-11-12T04:52:29.408Z,2.84
2022-11-12T04:55:18.033Z,2.94
2022-11-12T04:58:05.033Z,3.03
2022-11-12T05:00:52.644Z,2.93
2022-11-12T05:03:51.355Z,2.86
2022-11-12T05:06:53.903Z,2.85
2022-11-12T05:09:41.640Z,2.76
2022-11-12T05:12:29.692Z,2.85
2022-11-12T05:15:16.815Z,3.08
2022-11-12T05:18:03.499Z,2.94
2022-11-12T05:20:52.763Z,2.86
2022-11-12T05:23:39.348Z,2.84
2022-11-12T05:26:26.028Z,2.81
2022-11-12T05:29:14.417Z,2.97
2022-11-12T05:32:00.952Z,2.89
2022-11-12T05:34:47.804Z,2.77
2022-11-12T05:37:34.521Z,2.54
2022-11-12T05:40:21.108Z,2.55
2022-11-12T05:43:11.324Z,2.48
2022-11-12T05:45:59.464Z,2.65
2022-11-12T05:48:46.193Z,1.31
2022-11-12T05:51:33.347Z,2.86
2022-11-12T05:54:20.754Z,2.41
2022-11-12T05:57:07.736Z,2.23
2022-11-12T05:59:54.289Z,2.25
2022-11-12T06:02:43.118Z,2.26
2022-11-12T06:05:30.205Z,2.24
2022-11-12T06:08:17.383Z,2.19
2022-11-12T06:11:04.457Z,2.20
2022-11-12T06:13:51.272Z,2.10
2022-11-12T06:16:37.961Z,2.14
2022-11-12T06:19:26.337Z,2.20
2022-11-12T06:22:13.216Z,2.14
2022-11-12T06:25:00.194Z,2.22
2022-11-12T06:27:46.770Z,2.29
2022-11-12T06:30:33.576Z,2.08
2022-11-12T06:33:20.329Z,2.19
2022-11-12T06:36:09.500Z,2.13
2022-11-12T06:38:56.474Z,2.08
2022-11-12T06:41:43.204Z,2.12
2022-11-12T06:44:30.266Z,1.96
2022-11-12T06:47:17.376Z,1.92
2022-11-12T06:50:05.419Z,1.84
2022-11-12T06:52:59.761Z,1.96
2022-11-12T06:55:46.714Z,1.85
2022-11-12T06:58:33.891Z,1.98
2022-11-12T07:01:20.572Z,1.94
2022-11-12T07:04:08.013Z,1.99
2022-11-12T07:07:10.860Z,2.00
2022-11-12T07:09:59.232Z,1.99
2022-11-12T07:12:49.136Z,2.04
2022-11-12T07:15:39.836Z,2.11
2022-11-12T07:18:27.143Z,2.15
2022-11-12T07:21:17.678Z,2.17
2022-11-12T07:24:04.461Z,2.26
2022-11-12T07:26:52.547Z,2.42
2022-11-12T07:29:48.429Z,2.34
2022-11-12T07:32:41.621Z,2.46
2022-11-12T07:35:30.799Z,2.49
2022-11-12T07:38:17.672Z,2.58
2022-11-12T07:41:06.648Z,2.63
2022-11-12T07:43:55.492Z,2.70
2022-11-12T07:46:42.260Z,2.77
2022-11-12T07:49:28.958Z,3.01
2022-11-12T07:52:15.751Z,3.08
2022-11-12T07:55:02.376Z,3.19
2022-11-12T07:57:49.085Z,3.29
2022-11-12T08:00:37.266Z,3.51
2022-11-12T08:03:24.795Z,3.27
2022-11-12T08:06:11.279Z,3.60
2022-11-12T08:08:59.757Z,3.87
2022-11-12T08:11:46.444Z,3.99
2022-11-12T08:14:33.449Z,4.17
2022-11-12T08:17:23.736Z,4.95
2022-11-12T08:20:13.002Z,4.51
2022-11-12T08:23:01.888Z,4.56
2022-11-12T08:25:48.939Z,4.76
2022-11-12T08:28:37.896Z,4.75
2022-11-12T08:31:25.152Z,5.10
2022-11-12T08:34:15.161Z,5.19
2022-11-12T08:37:04.372Z,5.33
2022-11-12T08:39:51.077Z,5.44
2022-11-12T08:42:37.665Z,5.61
2022-11-12T08:45:24.542Z,5.84
2022-11-12T08:48:14.278Z,6.00
2022-11-12T08:51:05.209Z,6.33
2022-11-12T08:53:51.987Z,6.52
2022-11-12T08:56:39.717Z,6.53
2022-11-12T08:59:26.542Z,6.80
2022-11-12T09:02:14.504Z,6.73
2022-11-12T09:05:31.108Z,7.11
2022-11-12T09:08:24.170Z,7.26
2022-11-12T09:11:11.602Z,7.29
2022-11-12T09:13:58.590Z,7.29
2022-11-12T09:16:45.540Z,7.34
2022-11-12T09:19:32.285Z,7.30
2022-11-12T09:22:19.001Z,7.37
2022-11-12T09:25:08.735Z,7.63
2022-11-12T09:27:55.591Z,7.55
2022-11-12T09:30:46.538Z,7.60
2022-11-12T09:33:35.000Z,7.62
2022-11-12T09:36:21.859Z,7.61
2022-11-12T09:39:08.617Z,7.68
2022-11-12T09:42:01.982Z,7.68
2022-11-12T09:44:57.519Z,7.97
2022-11-12T09:47:49.968Z,7.81
2022-11-12T09:50:44.091Z,7.70
2022-11-12T09:53:42.977Z,7.62
2022-11-12T09:56:31.471Z,7.83
2022-11-12T09:59:20.251Z,7.93
2022-11-12T10:02:25.629Z,7.96
2022-11-12T10:05:27.491Z,8.03
2022-11-12T10:08:39.326Z,8.01
2022-11-12T10:12:13.880Z,8.04
2022-11-12T10:16:04.102Z,8.12
2022-11-12T10:19:08.901Z,8.16
2022-11-12T10:22:08.462Z,8.26
2022-11-12T10:24:56.816Z,8.25
2022-11-12T10:27:44.935Z,8.49
2022-11-12T10:30:33.544Z,8.43
2022-11-12T10:33:21.228Z,8.60
2022-11-12T10:36:27.221Z,8.54
2022-11-12T10:39:37.151Z,8.52
2022-11-12T10:42:24.566Z,8.68
2022-11-12T10:45:22.963Z,8.81
2022-11-12T10:48:27.872Z,9.02
2022-11-12T10:51:26.910Z,9.25
2022-11-12T10:54:31.303Z,9.19
2022-11-12T10:57:22.753Z,9.13
2022-11-12T11:00:19.900Z,9.44
2022-11-12T11:03:36.293Z,9.60
2022-11-12T11:06:27.024Z,9.42
2022-11-12T11:09:20.625Z,9.62
2022-11-12T11:12:24.644Z,9.32
2022-11-12T11:15:21.618Z,9.97
2022-11-12T11:18:12.080Z,9.95
2022-11-12T11:21:10.236Z,9.87
2022-11-12T11:24:07.057Z,10.07
2022-11-12T11:27:03.331Z,10.17
2022-11-12T11:30:04.960Z,10.29
2022-11-12T11:33:25.305Z,10.49
2022-11-12T11:36:25.444Z,10.60
2022-11-12T11:39:23.545Z,10.62
2022-11-12T11:42:32.324Z,10.86
2022-11-12T11:45:26.992Z,10.90
2022-11-12T11:48:27.927Z,10.99
2022-11-12T11:51:37.801Z,11.12
2022-11-12T11:55:02.197Z,10.47
2022-11-12T11:57:59.697Z,11.27
2022-11-12T12:00:57.592Z,11.09
2022-11-12T12:04:03.962Z,11.08
2022-11-12T12:07:15.300Z,10.39
2022-11-12T12:10:09.604Z,11.18
2022-11-12T12:13:08.802Z,11.15
2022-11-12T12:16:18.745Z,11.02
2022-11-12T12:19:17.791Z,11.08
2022-11-12T12:22:14.425Z,10.75
2022-11-12T12:25:10.851Z,11.11
2022-11-12T12:28:05.983Z,11.06
2022-11-12T12:30:55.856Z,10.99
2022-11-12T12:33:49.819Z,11.19
2022-11-12T12:36:39.287Z,10.80
2022-11-12T12:39:42.296Z,11.30
2022-11-12T12:42:39.161Z,11.27
2022-11-12T12:45:43.054Z,11.42
2022-11-12T12:48:33.136Z,11.56
2022-11-12T12:51:20.347Z,11.75
2022-11-12T12:54:58.644Z,11.89
2022-11-12T12:57:46.148Z,11.92
2022-11-12T13:00:40.344Z,11.92
2022-11-12T13:03:51.918Z,11.97
2022-11-12T13:06:53.049Z,11.90
2022-11-12T13:09:39.991Z,12.18
2022-11-12T13:13:05.859Z,12.18
2022-11-12T13:15:56.285Z,12.19
2022-11-12T13:19:02.015Z,12.11
2022-11-12T13:21:48.529Z,12.23
2022-11-12T13:25:09.279Z,12.04
2022-11-12T13:28:14.325Z,11.98
2022-11-12T13:31:03.587Z,11.90
2022-11-12T13:33:50.934Z,11.91
2022-11-12T13:36:37.987Z,11.93
2022-11-12T13:39:25.209Z,11.82
2022-11-12T13:42:33.212Z,11.87
2022-11-12T13:45:25.527Z,11.79
2022-11-12T13:48:18.777Z,11.67
2022-11-12T13:51:13.969Z,11.69
2022-11-12T13:54:01.329Z,11.51
2022-11-12T13:56:48.293Z,11.52
2022-11-12T13:59:34.844Z,11.44
2022-11-12T14:02:27.716Z,11.26
2022-11-12T14:05:17.914Z,11.36
2022-11-12T14:08:37.717Z,11.35
2022-11-12T14:11:52.595Z,11.24
2022-11-12T14:15:03.244Z,11.12
2022-11-12T14:18:02.847Z,11.19
2022-11-12T14:20:50.490Z,11.04
2022-11-12T14:23:39.360Z,10.99
2022-11-12T14:26:37.440Z,10.91
2022-11-12T14:29:24.147Z,10.87
2022-11-12T14:32:11.149Z,10.77
2022-11-12T14:34:58.977Z,10.71
2022-11-12T14:37:51.671Z,10.58
2022-11-12T14:40:44.501Z,10.54
2022-11-12T14:43:39.529Z,10.46
2022-11-12T14:46:30.046Z,10.38
2022-11-12T14:49:23.395Z,10.25
2022-11-12T14:52:18.683Z,9.56
2022-11-12T14:55:13.584Z,9.99
2022-11-12T14:58:02.500Z,9.98
2022-11-12T15:00:52.241Z,9.04
2022-11-12T15:03:52.685Z,9.74
2022-11-12T15:06:40.976Z,9.86
2022-11-12T15:09:38.471Z,9.72
2022-11-12T15:12:29.920Z,9.75
2022-11-12T15:15:22.698Z,9.58
2022-11-12T15:18:19.325Z,9.34
2022-11-12T15:21:15.076Z,9.25
2022-11-12T15:24:08.957Z,9.32
2022-11-12T15:26:59.544Z,9.14
2022-11-12T15:29:46.573Z,9.20
2022-11-12T15:32:35.476Z,8.58
2022-11-12T15:35:43.635Z,9.11
2022-11-12T15:38:36.069Z,8.97
2022-11-12T15:41:27.120Z,8.88
2022-11-12T15:44:15.859Z,8.87
2022-11-12T15:47:03.131Z,8.76
2022-11-12T15:49:51.654Z,8.74
2022-11-12T15:52:38.733Z,8.71
2022-11-12T15:55:25.570Z,8.64
2022-11-12T15:58:18.791Z,8.43
2022-11-12T16:01:07.637Z,8.34
2022-11-12T16:03:54.735Z,8.29
2022-11-12T16:06:41.671Z,8.17
2022-11-12T16:09:28.216Z,8.17
2022-11-12T16:12:16.231Z,7.89
2022-11-12T16:15:03.494Z,8.02
2022-11-12T16:17:52.202Z,8.00
2022-11-12T16:20:39.798Z,7.12
2022-11-12T16:23:27.012Z,8.07
2022-11-12T16:26:18.364Z,8.08
2022-11-12T16:29:05.119Z,7.98
2022-11-12T16:31:57.810Z,7.80
2022-11-12T16:34:45.731Z,7.86
2022-11-12T16:37:33.625Z,7.80
2022-11-12T16:40:23.525Z,7.77
2022-11-12T16:43:10.239Z,7.62
2022-11-12T16:45:56.906Z,7.54
2022-11-12T16:48:43.581Z,7.44
2022-11-12T16:51:31.559Z,7.17
2022-11-12T16:54:18.484Z,7.17
2022-11-12T16:57:05.443Z,6.96
2022-11-12T16:59:52.761Z,6.74
2022-11-12T17:02:44.518Z,6.67
2022-11-12T17:05:34.062Z,6.44
2022-11-12T17:08:22.350Z,6.52
2022-11-12T17:11:10.592Z,6.55
2022-11-12T17:13:57.336Z,6.45
2022-11-12T17:16:44.981Z,6.31
2022-11-12T17:19:31.901Z,6.30
2022-11-12T17:22:20.164Z,6.33
2022-11-12T17:25:09.927Z,6.26
2022-11-12T17:27:56.885Z,6.12
2022-11-12T17:30:43.594Z,6.00
2022-11-12T17:33:30.559Z,6.15
2022-11-12T17:36:19.767Z,6.05
2022-11-12T17:39:06.724Z,5.99
2022-11-12T17:41:54.844Z,5.98
2022-11-12T17:44:42.256Z,6.05
2022-11-12T17:47:29.454Z,5.88
2022-11-12T17:50:16.829Z,5.90
2022-11-12T17:53:03.454Z,5.78
2022-11-12T17:55:57.174Z,5.90
2022-11-12T17:58:47.234Z,5.86
2022-11-12T18:01:35.242Z,5.94
2022-11-12T18:04:23.751Z,5.85
2022-11-12T18:07:11.088Z,5.71
2022-11-12T18:09:58.130Z,4.89
2022-11-12T18:12:45.623Z,5.61
2022-11-12T18:15:33.876Z,5.91
2022-11-12T18:18:20.789Z,5.75
2022-11-12T18:21:07.539Z,5.67
2022-11-12T18:23:54.877Z,4.84
2022-11-12T18:26:41.722Z,5.48
2022-11-12T18:29:28.361Z,5.49
2022-11-12T18:32:16.452Z,5.51
2022-11-12T18:35:03.276Z,5.46
2022-11-12T18:37:49.941Z,5.43
2022-11-12T18:40:36.667Z,5.38
2022-11-12T18:43:23.272Z,5.28
2022-11-12T18:46:11.413Z,5.28
2022-11-12T18:48:59.461Z,5.40
2022-11-12T18:51:46.150Z,5.26
2022-11-12T18:54:32.816Z,5.17
2022-11-12T18:57:19.665Z,5.32
2022-11-12T19:00:07.314Z,5.10
2022-11-12T19:02:54.037Z,5.09
2022-11-12T19:05:42.429Z,5.08
2022-11-12T19:08:29.964Z,4.78
2022-11-12T19:11:21.345Z,4.97
2022-11-12T19:14:08.207Z,4.82
2022-11-12T19:16:54.811Z,4.86
2022-11-12T19:19:41.540Z,4.87
2022-11-12T19:22:29.600Z,4.93
2022-11-12T19:25:16.610Z,4.94
2022-11-12T19:28:03.698Z,4.84
2022-11-12T19:30:56.614Z,4.87
2022-11-12T19:33:43.835Z,4.70
2022-11-12T19:36:30.819Z,4.69
2022-11-12T19:39:19.100Z,4.66
2022-11-12T19:42:07.273Z,4.58
2022-11-12T19:44:54.241Z,4.51
2022-11-12T19:47:42.267Z,4.49
2022-11-12T19:50:30.693Z,4.44
2022-11-12T19:53:17.740Z,4.36
2022-11-12T19:56:07.734Z,4.38
2022-11-12T19:58:55.076Z,4.53
2022-11-12T20:01:42.262Z,4.57
2022-11-12T20:04:29.526Z,4.57
2022-11-12T20:07:16.292Z,4.55
2022-11-12T20:10:03.225Z,4.72
2022-11-12T20:12:51.280Z,4.67
2022-11-12T20:15:39.514Z,4.59
2022-11-12T20:18:26.657Z,4.73
2022-11-12T20:21:14.375Z,4.68
2022-11-12T20:24:02.503Z,4.41
2022-11-12T20:26:49.485Z,4.59
2022-11-12T20:29:37.789Z,4.59
2022-11-12T20:32:24.774Z,4.61
2022-11-12T20:35:19.280Z,4.57
2022-11-12T20:38:08.723Z,4.59
2022-11-12T20:41:00.006Z,4.60
2022-11-12T20:43:46.903Z,4.59
2022-11-12T20:46:35.343Z,4.60
2022-11-12T20:49:22.298Z,4.46
2022-11-12T20:52:09.230Z,4.61
2022-11-12T20:54:55.837Z,4.64
2022-11-12T20:57:42.796Z,4.57
2022-11-12T21:00:29.517Z,4.58
2022-11-12T21:03:19.849Z,4.50
2022-11-12T21:06:09.911Z,4.60
2022-11-12T21:08:59.711Z,4.55
2022-11-12T21:11:46.310Z,4.54
2022-11-12T21:14:33.048Z,4.48
2022-11-12T21:17:19.811Z,4.53
2022-11-12T21:20:08.788Z,4.48
2022-11-12T21:22:55.902Z,4.41
2022-11-12T21:25:43.111Z,4.37
2022-11-12T21:28:30.086Z,4.20
2022-11-12T21:31:19.640Z,4.27
2022-11-12T21:34:07.088Z,4.32
2022-11-12T21:36:55.813Z,4.36
2022-11-12T21:39:42.424Z,4.28
2022-11-12T21:42:29.129Z,4.31
2022-11-12T21:45:16.217Z,4.18
2022-11-12T21:48:02.769Z,4.14
2022-11-12T21:50:49.470Z,4.07
2022-11-12T21:53:37.568Z,4.16
2022-11-12T21:56:25.118Z,4.04
2022-11-12T21:59:11.760Z,4.07
2022-11-12T22:01:58.355Z,4.07
2022-11-12T22:04:45.059Z,4.15
2022-11-12T22:07:31.953Z,4.06
2022-11-12T22:10:20.095Z,4.05
2022-11-12T22:13:25.746Z,3.97
2022-11-12T22:16:15.921Z,3.97
2022-11-12T22:19:03.005Z,3.96
2022-11-12T22:21:49.634Z,3.95
2022-11-12T22:24:36.301Z,4.03
2022-11-12T22:27:25.673Z,3.98
2022-11-12T22:30:13.538Z,3.97
2022-11-12T22:33:01.670Z,3.96
2022-11-12T22:35:48.622Z,3.94
2022-11-12T22:39:00.014Z,3.92
2022-11-12T22:41:46.840Z,3.99
2022-11-12T22:44:35.097Z,4.04
2022-11-12T22:47:22.113Z,3.95
2022-11-12T22:50:10.929Z,3.76
2022-11-12T22:52:57.734Z,3.77
2022-11-12T22:55:44.312Z,3.76
2022-11-12T22:58:31.487Z,3.85
2022-11-12T23:01:24.813Z,3.21
2022-11-12T23:04:16.607Z,2.51
2022-11-12T23:07:11.150Z,3.72
2022-11-12T23:09:58.190Z,3.71
2022-11-12T23:12:44.856Z,3.72
2022-11-12T23:15:31.958Z,3.73
2022-11-12T23:18:20.189Z,3.49
2022-11-12T23:21:12.024Z,3.43
2022-11-12T23:23:59.190Z,3.62
2022-11-12T23:26:45.695Z,3.75
2022-11-12T23:29:32.332Z,3.51
2022-11-12T23:32:18.796Z,3.55
2022-11-12T23:35:08.104Z,3.52
2022-11-12T23:37:54.978Z,3.40
2022-11-12T23:40:41.781Z,3.39
2022-11-12T23:43:28.760Z,3.30
2022-11-12T23:46:15.376Z,3.32
2022-11-12T23:49:02.020Z,3.18
2022-11-12T23:51:50.260Z,3.15
2022-11-12T23:54:37.076Z,3.05
2022-11-12T23:57:23.646Z,3.16
